sensor_id;sensor_type;location;lat;lon;timestamp;pressure;altitude;pressure_sealevel;temperature;humidity
39177;BME280;24904;52.208;21.192;2023-06-14T00:01:25;100678.14;;;12.83;83.67
39177;BME280;24904;52.208;21.192;2023-06-14T00:06:29;100679.92;;;12.80;83.48
39177;BME280;24904;52.208;21.192;2023-06-14T00:11:33;100672.16;;;12.73;83.62
39177;BME280;24904;52.208;21.192;2023-06-14T00:16:36;100669.94;;;12.71;83.89
39177;BME280;24904;52.208;21.192;2023-06-14T00:21:41;100671.38;;;12.74;84.03
39177;BME280;24904;52.208;21.192;2023-06-14T00:26:44;100668.86;;;12.73;83.99
39177;BME280;24904;52.208;21.192;2023-06-14T00:31:47;100669.15;;;12.70;83.99
39177;BME280;24904;52.208;21.192;2023-06-14T00:36:50;100666.87;;;12.70;84.23
39177;BME280;24904;52.208;21.192;2023-06-14T00:41:53;100660.08;;;12.67;84.10
39177;BME280;24904;52.208;21.192;2023-06-14T00:46:56;100661.73;;;12.67;84.15
39177;BME280;24904;52.208;21.192;2023-06-14T00:52:00;100657.13;;;12.65;84.36
39177;BME280;24904;52.208;21.192;2023-06-14T00:57:05;100658.80;;;12.66;84.56
39177;BME280;24904;52.208;21.192;2023-06-14T01:02:09;100657.02;;;12.68;84.60
39177;BME280;24904;52.208;21.192;2023-06-14T01:07:18;100657.99;;;12.73;84.64
39177;BME280;24904;52.208;21.192;2023-06-14T01:12:31;100657.45;;;12.75;84.44
39177;BME280;24904;52.208;21.192;2023-06-14T01:17:38;100660.30;;;12.77;84.75
39177;BME280;24904;52.208;21.192;2023-06-14T01:22:50;100659.43;;;12.79;84.65
39177;BME280;24904;52.208;21.192;2023-06-14T01:27:58;100657.52;;;12.85;84.75
39177;BME280;24904;52.208;21.192;2023-06-14T01:33:02;100653.04;;;12.86;84.48
39177;BME280;24904;52.208;21.192;2023-06-14T01:38:08;100647.92;;;12.87;84.47
39177;BME280;24904;52.208;21.192;2023-06-14T01:43:13;100646.59;;;12.89;84.57
39177;BME280;24904;52.208;21.192;2023-06-14T01:48:17;100647.55;;;12.90;84.54
39177;BME280;24904;52.208;21.192;2023-06-14T01:53:21;100646.98;;;12.87;84.35
39177;BME280;24904;52.208;21.192;2023-06-14T01:58:24;100651.86;;;12.87;84.43
39177;BME280;24904;52.208;21.192;2023-06-14T02:03:28;100653.35;;;12.86;84.40
39177;BME280;24904;52.208;21.192;2023-06-14T02:08:32;100648.71;;;12.86;84.53
39177;BME280;24904;52.208;21.192;2023-06-14T02:13:36;100638.80;;;12.89;84.65
39177;BME280;24904;52.208;21.192;2023-06-14T02:18:39;100645.42;;;12.89;84.53
39177;BME280;24904;52.208;21.192;2023-06-14T02:23:42;100647.69;;;12.87;84.53
39177;BME280;24904;52.208;21.192;2023-06-14T02:28:46;100645.47;;;12.84;84.48
39177;BME280;24904;52.208;21.192;2023-06-14T02:33:49;100641.83;;;12.81;84.68
39177;BME280;24904;52.208;21.192;2023-06-14T02:38:52;100633.04;;;12.86;84.83
39177;BME280;24904;52.208;21.192;2023-06-14T02:43:56;100636.50;;;12.86;84.77
39177;BME280;24904;52.208;21.192;2023-06-14T02:49:01;100635.23;;;12.86;84.67
39177;BME280;24904;52.208;21.192;2023-06-14T02:54:04;100635.33;;;12.86;84.78
39177;BME280;24904;52.208;21.192;2023-06-14T02:59:08;100635.64;;;12.86;84.89
39177;BME280;24904;52.208;21.192;2023-06-14T03:04:12;100638.55;;;12.85;84.97
39177;BME280;24904;52.208;21.192;2023-06-14T03:09:17;100633.02;;;12.83;85.04
39177;BME280;24904;52.208;21.192;2023-06-14T03:14:22;100628.79;;;12.85;84.95
39177;BME280;24904;52.208;21.192;2023-06-14T03:19:25;100625.33;;;12.85;85.11
39177;BME280;24904;52.208;21.192;2023-06-14T03:24:30;100622.79;;;12.84;84.96
39177;BME280;24904;52.208;21.192;2023-06-14T03:29:42;100622.28;;;12.80;85.15
39177;BME280;24904;52.208;21.192;2023-06-14T03:43:30;100616.67;;;12.90;85.40
39177;BME280;24904;52.208;21.192;2023-06-14T03:48:34;100607.24;;;12.92;85.28
39177;BME280;24904;52.208;21.192;2023-06-14T03:53:38;100608.15;;;12.98;85.41
39177;BME280;24904;52.208;21.192;2023-06-14T03:58:41;100610.67;;;12.99;85.31
39177;BME280;24904;52.208;21.192;2023-06-14T04:04:23;100611.95;;;13.04;85.49
39177;BME280;24904;52.208;21.192;2023-06-14T04:09:32;100621.95;;;13.05;85.41
39177;BME280;24904;52.208;21.192;2023-06-14T04:14:35;100629.52;;;13.05;85.26
39177;BME280;24904;52.208;21.192;2023-06-14T04:19:38;100630.96;;;13.09;85.65
39177;BME280;24904;52.208;21.192;2023-06-14T04:24:42;100629.65;;;13.16;85.86
39177;BME280;24904;52.208;21.192;2023-06-14T04:29:48;100626.23;;;13.21;85.97
39177;BME280;24904;52.208;21.192;2023-06-14T04:34:56;100617.65;;;13.23;86.16
39177;BME280;24904;52.208;21.192;2023-06-14T04:40:00;100615.40;;;13.26;86.33
39177;BME280;24904;52.208;21.192;2023-06-14T04:45:09;100618.39;;;13.27;86.04
39177;BME280;24904;52.208;21.192;2023-06-14T04:50:13;100620.37;;;13.31;86.34
39177;BME280;24904;52.208;21.192;2023-06-14T04:55:17;100620.70;;;13.36;86.47
39177;BME280;24904;52.208;21.192;2023-06-14T05:00:21;100626.48;;;13.41;86.23
39177;BME280;24904;52.208;21.192;2023-06-14T05:05:25;100626.55;;;13.40;86.48
39177;BME280;24904;52.208;21.192;2023-06-14T05:10:28;100633.04;;;13.48;86.58
39177;BME280;24904;52.208;21.192;2023-06-14T05:15:32;100637.56;;;13.53;86.56
39177;BME280;24904;52.208;21.192;2023-06-14T05:20:35;100642.21;;;13.56;86.62
39177;BME280;24904;52.208;21.192;2023-06-14T05:25:39;100643.33;;;13.61;86.43
39177;BME280;24904;52.208;21.192;2023-06-14T05:30:42;100645.64;;;13.67;86.11
39177;BME280;24904;52.208;21.192;2023-06-14T05:35:46;100645.73;;;13.69;86.19
39177;BME280;24904;52.208;21.192;2023-06-14T05:40:49;100648.48;;;13.72;86.00
39177;BME280;24904;52.208;21.192;2023-06-14T05:45:52;100644.80;;;13.78;86.29
39177;BME280;24904;52.208;21.192;2023-06-14T05:50:55;100644.41;;;13.84;86.43
39177;BME280;24904;52.208;21.192;2023-06-14T05:55:58;100649.95;;;13.86;86.21
39177;BME280;24904;52.208;21.192;2023-06-14T06:01:01;100651.91;;;13.88;86.20
39177;BME280;24904;52.208;21.192;2023-06-14T06:06:04;100642.68;;;13.90;86.31
39177;BME280;24904;52.208;21.192;2023-06-14T06:11:07;100636.54;;;13.96;86.69
39177;BME280;24904;52.208;21.192;2023-06-14T06:16:10;100639.47;;;14.03;86.66
39177;BME280;24904;52.208;21.192;2023-06-14T06:21:13;100645.88;;;14.08;86.38
39177;BME280;24904;52.208;21.192;2023-06-14T06:26:16;100650.46;;;14.12;86.03
39177;BME280;24904;52.208;21.192;2023-06-14T06:31:19;100651.17;;;14.18;86.22
39177;BME280;24904;52.208;21.192;2023-06-14T06:36:24;100658.60;;;14.25;86.37
39177;BME280;24904;52.208;21.192;2023-06-14T06:41:27;100653.62;;;14.30;85.89
39177;BME280;24904;52.208;21.192;2023-06-14T06:46:30;100653.14;;;14.33;86.00
39177;BME280;24904;52.208;21.192;2023-06-14T06:51:34;100658.61;;;14.38;86.02
39177;BME280;24904;52.208;21.192;2023-06-14T06:56:37;100656.95;;;14.42;86.23
39177;BME280;24904;52.208;21.192;2023-06-14T07:01:40;100661.54;;;14.47;86.22
39177;BME280;24904;52.208;21.192;2023-06-14T07:06:43;100660.45;;;14.53;86.61
39177;BME280;24904;52.208;21.192;2023-06-14T07:11:47;100662.09;;;14.61;86.63
39177;BME280;24904;52.208;21.192;2023-06-14T07:16:50;100668.09;;;14.67;86.72
39177;BME280;24904;52.208;21.192;2023-06-14T07:21:53;100658.99;;;14.74;86.64
39177;BME280;24904;52.208;21.192;2023-06-14T07:26:57;100663.10;;;14.80;86.33
39177;BME280;24904;52.208;21.192;2023-06-14T07:32:00;100669.02;;;14.89;85.77
39177;BME280;24904;52.208;21.192;2023-06-14T07:37:03;100669.71;;;14.98;85.62
39177;BME280;24904;52.208;21.192;2023-06-14T07:42:07;100668.96;;;15.10;86.30
39177;BME280;24904;52.208;21.192;2023-06-14T07:47:10;100671.14;;;15.24;85.83
39177;BME280;24904;52.208;21.192;2023-06-14T07:52:13;100669.91;;;15.36;85.36
39177;BME280;24904;52.208;21.192;2023-06-14T07:57:16;100676.66;;;15.49;85.25
39177;BME280;24904;52.208;21.192;2023-06-14T08:02:22;100676.63;;;15.59;84.93
39177;BME280;24904;52.208;21.192;2023-06-14T08:07:25;100676.14;;;15.68;85.74
39177;BME280;24904;52.208;21.192;2023-06-14T08:12:28;100679.27;;;15.77;84.98
39177;BME280;24904;52.208;21.192;2023-06-14T08:17:31;100681.41;;;15.86;84.61
39177;BME280;24904;52.208;21.192;2023-06-14T08:22:34;100678.63;;;15.89;84.66
39177;BME280;24904;52.208;21.192;2023-06-14T08:27:38;100680.13;;;15.89;83.27
39177;BME280;24904;52.208;21.192;2023-06-14T08:32:41;100685.74;;;15.88;83.22
39177;BME280;24904;52.208;21.192;2023-06-14T08:37:44;100682.98;;;15.88;83.44
39177;BME280;24904;52.208;21.192;2023-06-14T08:42:50;100684.50;;;15.86;84.09
39177;BME280;24904;52.208;21.192;2023-06-14T08:47:54;100679.66;;;15.89;84.14
39177;BME280;24904;52.208;21.192;2023-06-14T08:53:00;100678.69;;;15.94;84.72
39177;BME280;24904;52.208;21.192;2023-06-14T08:58:04;100677.45;;;16.00;84.41
39177;BME280;24904;52.208;21.192;2023-06-14T09:03:07;100675.41;;;16.11;84.28
39177;BME280;24904;52.208;21.192;2023-06-14T09:08:15;100678.58;;;16.24;83.44
39177;BME280;24904;52.208;21.192;2023-06-14T09:13:21;100678.57;;;16.36;83.28
39177;BME280;24904;52.208;21.192;2023-06-14T09:18:35;100681.48;;;16.46;82.73
39177;BME280;24904;52.208;21.192;2023-06-14T09:23:38;100681.77;;;16.58;80.65
39177;BME280;24904;52.208;21.192;2023-06-14T09:28:45;100682.27;;;16.68;79.11
39177;BME280;24904;52.208;21.192;2023-06-14T09:33:49;100681.14;;;16.80;79.60
39177;BME280;24904;52.208;21.192;2023-06-14T09:38:56;100677.66;;;16.86;78.61
39177;BME280;24904;52.208;21.192;2023-06-14T09:44:00;100677.64;;;16.91;77.40
39177;BME280;24904;52.208;21.192;2023-06-14T09:49:05;100677.94;;;16.92;77.71
39177;BME280;24904;52.208;21.192;2023-06-14T09:54:09;100674.42;;;16.95;76.95
39177;BME280;24904;52.208;21.192;2023-06-14T09:59:21;100674.83;;;17.00;77.94
39177;BME280;24904;52.208;21.192;2023-06-14T10:04:30;100678.33;;;17.08;78.84
39177;BME280;24904;52.208;21.192;2023-06-14T10:09:34;100670.59;;;17.19;76.51
39177;BME280;24904;52.208;21.192;2023-06-14T10:14:38;100671.73;;;17.31;75.52
39177;BME280;24904;52.208;21.192;2023-06-14T10:19:44;100674.64;;;17.39;74.51
39177;BME280;24904;52.208;21.192;2023-06-14T10:24:50;100676.23;;;17.45;72.95
39177;BME280;24904;52.208;21.192;2023-06-14T10:30:09;100677.79;;;17.49;72.13
39177;BME280;24904;52.208;21.192;2023-06-14T10:35:16;100680.96;;;17.48;70.52
39177;BME280;24904;52.208;21.192;2023-06-14T10:40:31;100684.65;;;17.44;69.74
39177;BME280;24904;52.208;21.192;2023-06-14T10:45:34;100681.20;;;17.41;69.88
39177;BME280;24904;52.208;21.192;2023-06-14T10:50:42;100673.48;;;17.37;70.11
39177;BME280;24904;52.208;21.192;2023-06-14T10:55:47;100669.26;;;17.32;70.18
39177;BME280;24904;52.208;21.192;2023-06-14T11:00:50;100665.01;;;17.29;70.30
39177;BME280;24904;52.208;21.192;2023-06-14T11:05:54;100663.98;;;17.28;70.69
39177;BME280;24904;52.208;21.192;2023-06-14T11:11:00;100660.94;;;17.31;70.64
39177;BME280;24904;52.208;21.192;2023-06-14T11:16:04;100655.61;;;17.32;70.93
39177;BME280;24904;52.208;21.192;2023-06-14T11:21:16;100655.29;;;17.46;71.58
39177;BME280;24904;52.208;21.192;2023-06-14T11:26:26;100656.31;;;17.59;69.89
39177;BME280;24904;52.208;21.192;2023-06-14T11:31:30;100650.73;;;17.67;68.95
39177;BME280;24904;52.208;21.192;2023-06-14T11:36:34;100652.91;;;17.78;67.56
39177;BME280;24904;52.208;21.192;2023-06-14T11:41:40;100651.54;;;17.96;66.50
39177;BME280;24904;52.208;21.192;2023-06-14T11:46:45;100650.96;;;18.23;66.06
39177;BME280;24904;52.208;21.192;2023-06-14T11:51:48;100652.77;;;18.45;65.49
39177;BME280;24904;52.208;21.192;2023-06-14T11:56:54;100655.86;;;18.60;63.52
39177;BME280;24904;52.208;21.192;2023-06-14T12:01:58;100651.56;;;18.60;61.08
39177;BME280;24904;52.208;21.192;2023-06-14T12:07:11;100657.50;;;18.60;60.11
39177;BME280;24904;52.208;21.192;2023-06-14T12:12:17;100649.80;;;18.61;60.59
39177;BME280;24904;52.208;21.192;2023-06-14T12:17:21;100645.52;;;18.71;60.62
39177;BME280;24904;52.208;21.192;2023-06-14T12:22:28;100649.17;;;18.79;60.60
39177;BME280;24904;52.208;21.192;2023-06-14T12:27:34;100641.10;;;18.90;59.57
39177;BME280;24904;52.208;21.192;2023-06-14T12:32:40;100637.33;;;19.01;59.57
39177;BME280;24904;52.208;21.192;2023-06-14T12:37:44;100638.80;;;18.98;58.82
39177;BME280;24904;52.208;21.192;2023-06-14T12:53:19;100635.45;;;18.79;57.33
39177;BME280;24904;52.208;21.192;2023-06-14T12:58:24;100629.98;;;18.73;57.50
39177;BME280;24904;52.208;21.192;2023-06-14T13:03:29;100619.04;;;18.79;58.03
39177;BME280;24904;52.208;21.192;2023-06-14T13:08:37;100618.86;;;18.81;57.46
39177;BME280;24904;52.208;21.192;2023-06-14T13:13:42;100612.61;;;18.79;56.88
39177;BME280;24904;52.208;21.192;2023-06-14T13:18:47;100615.80;;;18.79;57.17
39177;BME280;24904;52.208;21.192;2023-06-14T13:23:52;100613.46;;;18.84;57.25
39177;BME280;24904;52.208;21.192;2023-06-14T13:28:57;100606.50;;;18.91;57.58
39177;BME280;24904;52.208;21.192;2023-06-14T13:34:02;100605.80;;;18.94;56.37
39177;BME280;24904;52.208;21.192;2023-06-14T13:39:08;100603.92;;;18.80;55.02
39177;BME280;24904;52.208;21.192;2023-06-14T13:44:14;100597.48;;;18.62;54.98
39177;BME280;24904;52.208;21.192;2023-06-14T13:49:22;100592.25;;;18.56;55.74
39177;BME280;24904;52.208;21.192;2023-06-14T13:54:28;100597.67;;;18.55;54.89
39177;BME280;24904;52.208;21.192;2023-06-14T13:59:33;100602.86;;;18.50;54.72
39177;BME280;24904;52.208;21.192;2023-06-14T14:04:38;100600.59;;;18.49;55.11
39177;BME280;24904;52.208;21.192;2023-06-14T14:09:43;100596.61;;;18.49;54.39
39177;BME280;24904;52.208;21.192;2023-06-14T14:14:48;100591.40;;;18.48;53.74
39177;BME280;24904;52.208;21.192;2023-06-14T14:19:54;100591.73;;;18.50;54.69
39177;BME280;24904;52.208;21.192;2023-06-14T14:24:59;100591.14;;;18.56;54.47
39177;BME280;24904;52.208;21.192;2023-06-14T14:30:04;100600.91;;;18.62;53.80
39177;BME280;24904;52.208;21.192;2023-06-14T14:35:10;100595.27;;;18.62;53.75
39177;BME280;24904;52.208;21.192;2023-06-14T14:40:15;100593.48;;;18.65;53.80
39177;BME280;24904;52.208;21.192;2023-06-14T14:45:20;100595.46;;;18.70;53.93
39177;BME280;24904;52.208;21.192;2023-06-14T14:50:26;100586.30;;;18.83;54.35
39177;BME280;24904;52.208;21.192;2023-06-14T14:55:31;100580.67;;;18.95;54.42
39177;BME280;24904;52.208;21.192;2023-06-14T15:00:38;100580.66;;;18.95;54.40
39177;BME280;24904;52.208;21.192;2023-06-14T15:05:43;100573.05;;;18.94;54.99
39177;BME280;24904;52.208;21.192;2023-06-14T15:10:48;100572.20;;;18.97;54.80
39177;BME280;24904;52.208;21.192;2023-06-14T15:15:53;100570.23;;;18.99;55.41
39177;BME280;24904;52.208;21.192;2023-06-14T15:20:58;100573.29;;;18.97;55.44
39177;BME280;24904;52.208;21.192;2023-06-14T15:26:03;100575.34;;;18.91;55.41
39177;BME280;24904;52.208;21.192;2023-06-14T15:31:08;100580.86;;;18.89;55.11
39177;BME280;24904;52.208;21.192;2023-06-14T15:36:13;100580.23;;;18.81;54.64
39177;BME280;24904;52.208;21.192;2023-06-14T15:41:19;100580.71;;;18.77;55.25
39177;BME280;24904;52.208;21.192;2023-06-14T15:46:24;100580.27;;;18.76;55.48
39177;BME280;24904;52.208;21.192;2023-06-14T15:51:29;100577.86;;;18.67;55.43
39177;BME280;24904;52.208;21.192;2023-06-14T16:02:37;100580.11;;;18.51;56.03
39177;BME280;24904;52.208;21.192;2023-06-14T16:07:42;100571.92;;;18.43;56.37
39177;BME280;24904;52.208;21.192;2023-06-14T16:12:47;100570.90;;;18.34;56.94
39177;BME280;24904;52.208;21.192;2023-06-14T16:17:52;100569.82;;;18.27;57.62
39177;BME280;24904;52.208;21.192;2023-06-14T16:22:58;100573.88;;;18.22;58.04
39177;BME280;24904;52.208;21.192;2023-06-14T16:28:05;100569.70;;;18.20;58.59
39177;BME280;24904;52.208;21.192;2023-06-14T16:33:10;100567.95;;;18.16;59.07
39177;BME280;24904;52.208;21.192;2023-06-14T16:38:15;100570.84;;;18.13;59.53
39177;BME280;24904;52.208;21.192;2023-06-14T16:43:20;100572.70;;;18.11;59.95
39177;BME280;24904;52.208;21.192;2023-06-14T16:48:25;100571.98;;;18.07;60.20
39177;BME280;24904;52.208;21.192;2023-06-14T16:53:30;100568.73;;;18.01;60.45
39177;BME280;24904;52.208;21.192;2023-06-14T16:58:35;100576.96;;;17.98;60.82
39177;BME280;24904;52.208;21.192;2023-06-14T17:03:40;100579.79;;;17.96;61.01
39177;BME280;24904;52.208;21.192;2023-06-14T17:08:45;100581.04;;;17.92;61.02
39177;BME280;24904;52.208;21.192;2023-06-14T17:13:51;100577.14;;;17.87;60.87
39177;BME280;24904;52.208;21.192;2023-06-14T17:18:56;100578.00;;;17.83;60.94
39177;BME280;24904;52.208;21.192;2023-06-14T17:24:01;100584.05;;;17.81;61.23
39177;BME280;24904;52.208;21.192;2023-06-14T17:29:24;100582.23;;;17.81;61.33
39177;BME280;24904;52.208;21.192;2023-06-14T17:34:30;100581.10;;;17.77;61.30
39177;BME280;24904;52.208;21.192;2023-06-14T17:39:35;100586.76;;;17.76;61.35
39177;BME280;24904;52.208;21.192;2023-06-14T17:44:42;100588.77;;;17.74;61.56
39177;BME280;24904;52.208;21.192;2023-06-14T17:49:47;100585.22;;;17.72;61.50
39177;BME280;24904;52.208;21.192;2023-06-14T17:54:55;100586.83;;;17.70;61.80
39177;BME280;24904;52.208;21.192;2023-06-14T18:00:00;100590.98;;;17.68;61.81
39177;BME280;24904;52.208;21.192;2023-06-14T18:05:26;100591.39;;;17.66;61.80
39177;BME280;24904;52.208;21.192;2023-06-14T18:10:31;100592.22;;;17.64;62.03
39177;BME280;24904;52.208;21.192;2023-06-14T18:15:36;100595.53;;;17.60;61.97
39177;BME280;24904;52.208;21.192;2023-06-14T18:20:41;100601.05;;;17.55;62.40
39177;BME280;24904;52.208;21.192;2023-06-14T18:25:46;100601.64;;;17.48;63.11
39177;BME280;24904;52.208;21.192;2023-06-14T18:30:51;100605.56;;;17.39;63.58
39177;BME280;24904;52.208;21.192;2023-06-14T18:35:56;100610.59;;;17.31;64.18
39177;BME280;24904;52.208;21.192;2023-06-14T18:41:01;100609.89;;;17.24;64.67
39177;BME280;24904;52.208;21.192;2023-06-14T18:46:06;100610.15;;;17.14;65.49
39177;BME280;24904;52.208;21.192;2023-06-14T18:51:11;100611.94;;;17.05;66.95
39177;BME280;24904;52.208;21.192;2023-06-14T18:56:17;100614.60;;;16.94;67.65
39177;BME280;24904;52.208;21.192;2023-06-14T19:01:22;100615.45;;;16.80;68.09
39177;BME280;24904;52.208;21.192;2023-06-14T19:06:27;100617.27;;;16.63;68.68
39177;BME280;24904;52.208;21.192;2023-06-14T19:11:32;100627.86;;;16.56;69.22
39177;BME280;24904;52.208;21.192;2023-06-14T19:16:38;100632.36;;;16.48;69.58
39177;BME280;24904;52.208;21.192;2023-06-14T19:21:43;100632.91;;;16.40;70.03
39177;BME280;24904;52.208;21.192;2023-06-14T19:26:48;100633.83;;;16.36;70.44
39177;BME280;24904;52.208;21.192;2023-06-14T19:31:53;100628.71;;;16.30;70.97
39177;BME280;24904;52.208;21.192;2023-06-14T19:36:58;100634.34;;;16.20;71.11
39177;BME280;24904;52.208;21.192;2023-06-14T19:42:04;100639.02;;;16.08;71.44
39177;BME280;24904;52.208;21.192;2023-06-14T19:47:10;100641.05;;;16.00;71.96
39177;BME280;24904;52.208;21.192;2023-06-14T19:52:15;100639.02;;;15.97;72.37
39177;BME280;24904;52.208;21.192;2023-06-14T20:03:13;100633.64;;;15.71;72.56
39177;BME280;24904;52.208;21.192;2023-06-14T20:08:18;100630.92;;;15.60;73.01
39177;BME280;24904;52.208;21.192;2023-06-14T20:13:27;100631.81;;;15.53;73.26
39177;BME280;24904;52.208;21.192;2023-06-14T20:18:32;100635.89;;;15.42;73.40
39177;BME280;24904;52.208;21.192;2023-06-14T20:23:37;100635.94;;;15.31;73.67
39177;BME280;24904;52.208;21.192;2023-06-14T20:28:42;100641.66;;;15.23;73.82
39177;BME280;24904;52.208;21.192;2023-06-14T20:33:48;100639.86;;;15.17;74.17
39177;BME280;24904;52.208;21.192;2023-06-14T20:38:53;100638.70;;;15.11;74.52
39177;BME280;24904;52.208;21.192;2023-06-14T20:43:59;100637.92;;;15.03;74.70
39177;BME280;24904;52.208;21.192;2023-06-14T20:49:06;100635.60;;;14.89;74.56
39177;BME280;24904;52.208;21.192;2023-06-14T20:54:12;100633.80;;;14.76;74.69
39177;BME280;24904;52.208;21.192;2023-06-14T21:07:22;100637.37;;;14.65;75.40
39177;BME280;24904;52.208;21.192;2023-06-14T21:12:28;100640.70;;;14.60;75.91
39177;BME280;24904;52.208;21.192;2023-06-14T21:17:34;100641.25;;;14.58;76.25
39177;BME280;24904;52.208;21.192;2023-06-14T21:22:39;100638.12;;;14.52;76.40
39177;BME280;24904;52.208;21.192;2023-06-14T21:27:44;100632.34;;;14.50;76.76
39177;BME280;24904;52.208;21.192;2023-06-14T21:32:49;100635.27;;;14.49;76.92
39177;BME280;24904;52.208;21.192;2023-06-14T21:37:54;100637.23;;;14.46;77.31
39177;BME280;24904;52.208;21.192;2023-06-14T21:42:59;100635.02;;;14.44;77.37
39177;BME280;24904;52.208;21.192;2023-06-14T21:48:05;100631.61;;;14.39;77.45
39177;BME280;24904;52.208;21.192;2023-06-14T21:53:11;100635.80;;;14.37;77.74
39177;BME280;24904;52.208;21.192;2023-06-14T21:58:16;100632.02;;;14.36;77.88
39177;BME280;24904;52.208;21.192;2023-06-14T22:11:33;100619.62;;;14.39;78.06
39177;BME280;24904;52.208;21.192;2023-06-14T22:16:38;100616.13;;;14.34;78.26
39177;BME280;24904;52.208;21.192;2023-06-14T22:21:45;100615.19;;;14.32;78.56
39177;BME280;24904;52.208;21.192;2023-06-14T22:26:54;100603.90;;;14.31;78.76
39177;BME280;24904;52.208;21.192;2023-06-14T22:32:03;100602.16;;;14.31;78.95
39177;BME280;24904;52.208;21.192;2023-06-14T22:37:08;100608.80;;;14.28;79.09
39177;BME280;24904;52.208;21.192;2023-06-14T22:42:13;100606.58;;;14.29;79.48
39177;BME280;24904;52.208;21.192;2023-06-14T22:47:21;100605.48;;;14.31;79.60
39177;BME280;24904;52.208;21.192;2023-06-14T22:52:29;100607.38;;;14.31;79.78
39177;BME280;24904;52.208;21.192;2023-06-14T22:57:56;100614.55;;;14.36;80.15
39177;BME280;24904;52.208;21.192;2023-06-14T23:03:03;100615.58;;;14.33;80.31
39177;BME280;24904;52.208;21.192;2023-06-14T23:08:10;100614.79;;;14.30;80.62
39177;BME280;24904;52.208;21.192;2023-06-14T23:13:15;100615.19;;;14.30;80.99
39177;BME280;24904;52.208;21.192;2023-06-14T23:18:21;100615.98;;;14.31;81.21
39177;BME280;24904;52.208;21.192;2023-06-14T23:23:27;100620.08;;;14.31;81.51
39177;BME280;24904;52.208;21.192;2023-06-14T23:28:32;100622.52;;;14.33;81.72
39177;BME280;24904;52.208;21.192;2023-06-14T23:33:38;100613.45;;;14.31;81.87
39177;BME280;24904;52.208;21.192;2023-06-14T23:38:43;100605.25;;;14.26;82.06
39177;BME280;24904;52.208;21.192;2023-06-14T23:43:51;100594.84;;;14.25;82.43
39177;BME280;24904;52.208;21.192;2023-06-14T23:48:57;100578.02;;;14.26;82.74
39177;BME280;24904;52.208;21.192;2023-06-14T23:54:02;100563.51;;;14.27;82.93
39177;BME280;24904;52.208;21.192;2023-06-14T23:59:07;100566.59;;;14.26;83.18
